Terminal Aerodrome Forecast
Issued by NWS Blacksburg, VA

Home | Current Version | Previous Version | Text Only | Print | Product List | Glossary On
Versions: 1 2 3 4 5 6 7 8 9 10 11 12 13 14 15 16 17 18 19 20 21 22 23 24 25 26 27 28 29 30 31 32 33 34
000
FTUS41 KRNK 301300 AAA
TAFROA
TAF AMD
KROA 301300Z 3013/3112 00000KT P6SM OVC007
     FM301400 19005KT P6SM SCT015 SCT040
     FM301800 17009KT P6SM SCT050
     FM310100 16003KT P6SM SKC=

USA.gov is the U.S. government's official web portal to all federal, state and local government web resources and services.